sensor_id;sensor_type;location;lat;lon;timestamp;P1;durP1;ratioP1;P2;durP2;ratioP2
17059;SDS011;8646;49.716;9.266;2022-10-10T00:02:06;9.13;;;2.93;;
17059;SDS011;8646;49.716;9.266;2022-10-10T00:05:11;7.53;;;3.23;;
17059;SDS011;8646;49.716;9.266;2022-10-10T00:08:14;9.63;;;3.50;;
17059;SDS011;8646;49.716;9.266;2022-10-10T00:11:18;5.77;;;3.10;;
17059;SDS011;8646;49.716;9.266;2022-10-10T00:14:22;6.37;;;2.80;;
17059;SDS011;8646;49.716;9.266;2022-10-10T00:17:25;12.37;;;3.80;;
17059;SDS011;8646;49.716;9.266;2022-10-10T00:20:30;11.90;;;4.23;;
17059;SDS011;8646;49.716;9.266;2022-10-10T00:23:32;11.93;;;4.27;;
17059;SDS011;8646;49.716;9.266;2022-10-10T00:26:36;11.57;;;3.70;;
17059;SDS011;8646;49.716;9.266;2022-10-10T00:29:38;9.30;;;3.87;;
17059;SDS011;8646;49.716;9.266;2022-10-10T00:32:41;7.07;;;3.10;;
17059;SDS011;8646;49.716;9.266;2022-10-10T00:35:46;7.73;;;3.30;;
17059;SDS011;8646;49.716;9.266;2022-10-10T00:38:49;9.90;;;3.53;;
17059;SDS011;8646;49.716;9.266;2022-10-10T00:41:52;6.70;;;2.70;;
17059;SDS011;8646;49.716;9.266;2022-10-10T00:48:23;8.10;;;2.90;;
17059;SDS011;8646;49.716;9.266;2022-10-10T00:51:30;11.77;;;2.87;;
17059;SDS011;8646;49.716;9.266;2022-10-10T00:54:34;6.20;;;2.93;;
17059;SDS011;8646;49.716;9.266;2022-10-10T00:57:39;7.73;;;3.47;;
17059;SDS011;8646;49.716;9.266;2022-10-10T01:00:43;5.53;;;2.80;;
17059;SDS011;8646;49.716;9.266;2022-10-10T01:03:47;6.07;;;3.10;;
17059;SDS011;8646;49.716;9.266;2022-10-10T01:06:51;5.97;;;3.00;;
17059;SDS011;8646;49.716;9.266;2022-10-10T01:09:55;7.37;;;3.43;;
17059;SDS011;8646;49.716;9.266;2022-10-10T01:13:05;7.20;;;3.40;;
17059;SDS011;8646;49.716;9.266;2022-10-10T01:16:14;11.00;;;3.23;;
17059;SDS011;8646;49.716;9.266;2022-10-10T01:19:29;5.47;;;3.00;;
17059;SDS011;8646;49.716;9.266;2022-10-10T01:22:53;6.47;;;3.00;;
17059;SDS011;8646;49.716;9.266;2022-10-10T01:26:12;10.63;;;3.83;;
17059;SDS011;8646;49.716;9.266;2022-10-10T01:29:42;9.20;;;3.57;;
17059;SDS011;8646;49.716;9.266;2022-10-10T01:32:51;9.07;;;3.40;;
17059;SDS011;8646;49.716;9.266;2022-10-10T01:35:56;16.17;;;3.60;;
17059;SDS011;8646;49.716;9.266;2022-10-10T01:39:06;14.00;;;3.47;;
17059;SDS011;8646;49.716;9.266;2022-10-10T01:42:34;11.03;;;3.57;;
17059;SDS011;8646;49.716;9.266;2022-10-10T01:45:44;7.83;;;3.33;;
17059;SDS011;8646;49.716;9.266;2022-10-10T01:48:48;8.17;;;3.10;;
17059;SDS011;8646;49.716;9.266;2022-10-10T01:51:56;7.93;;;3.40;;
17059;SDS011;8646;49.716;9.266;2022-10-10T01:55:16;12.63;;;3.47;;
17059;SDS011;8646;49.716;9.266;2022-10-10T02:02:07;9.73;;;3.80;;
17059;SDS011;8646;49.716;9.266;2022-10-10T02:05:18;8.80;;;3.47;;
17059;SDS011;8646;49.716;9.266;2022-10-10T02:08:27;7.13;;;3.40;;
17059;SDS011;8646;49.716;9.266;2022-10-10T02:11:35;7.97;;;3.30;;
17059;SDS011;8646;49.716;9.266;2022-10-10T02:14:41;13.73;;;3.97;;
17059;SDS011;8646;49.716;9.266;2022-10-10T02:17:48;11.40;;;3.60;;
17059;SDS011;8646;49.716;9.266;2022-10-10T02:20:52;9.10;;;3.50;;
17059;SDS011;8646;49.716;9.266;2022-10-10T02:23:58;10.93;;;3.80;;
17059;SDS011;8646;49.716;9.266;2022-10-10T02:27:05;10.23;;;4.03;;
17059;SDS011;8646;49.716;9.266;2022-10-10T02:30:12;6.97;;;3.00;;
17059;SDS011;8646;49.716;9.266;2022-10-10T02:33:19;6.40;;;3.17;;
17059;SDS011;8646;49.716;9.266;2022-10-10T02:36:28;11.23;;;3.10;;
17059;SDS011;8646;49.716;9.266;2022-10-10T02:39:34;9.57;;;3.23;;
17059;SDS011;8646;49.716;9.266;2022-10-10T02:42:40;12.50;;;3.70;;
17059;SDS011;8646;49.716;9.266;2022-10-10T02:45:44;7.53;;;2.70;;
17059;SDS011;8646;49.716;9.266;2022-10-10T02:48:49;9.23;;;3.33;;
17059;SDS011;8646;49.716;9.266;2022-10-10T02:51:52;4.47;;;2.87;;
17059;SDS011;8646;49.716;9.266;2022-10-10T02:54:55;6.40;;;2.83;;
17059;SDS011;8646;49.716;9.266;2022-10-10T02:57:58;5.37;;;2.90;;
17059;SDS011;8646;49.716;9.266;2022-10-10T03:01:00;9.47;;;3.20;;
17059;SDS011;8646;49.716;9.266;2022-10-10T03:04:05;12.37;;;3.80;;
17059;SDS011;8646;49.716;9.266;2022-10-10T03:07:08;8.57;;;4.47;;
17059;SDS011;8646;49.716;9.266;2022-10-10T03:10:10;5.67;;;3.10;;
17059;SDS011;8646;49.716;9.266;2022-10-10T03:13:13;5.67;;;3.70;;
17059;SDS011;8646;49.716;9.266;2022-10-10T03:16:18;6.80;;;3.30;;
17059;SDS011;8646;49.716;9.266;2022-10-10T03:19:22;5.83;;;3.00;;
17059;SDS011;8646;49.716;9.266;2022-10-10T03:22:26;10.10;;;3.70;;
17059;SDS011;8646;49.716;9.266;2022-10-10T03:25:28;13.57;;;4.10;;
17059;SDS011;8646;49.716;9.266;2022-10-10T03:28:31;9.63;;;3.70;;
17059;SDS011;8646;49.716;9.266;2022-10-10T03:31:34;13.43;;;4.30;;
17059;SDS011;8646;49.716;9.266;2022-10-10T03:34:39;9.07;;;3.40;;
17059;SDS011;8646;49.716;9.266;2022-10-10T03:37:42;7.03;;;3.23;;
17059;SDS011;8646;49.716;9.266;2022-10-10T03:40:45;8.67;;;3.23;;
17059;SDS011;8646;49.716;9.266;2022-10-10T03:43:48;6.27;;;3.27;;
17059;SDS011;8646;49.716;9.266;2022-10-10T03:46:50;7.27;;;3.80;;
17059;SDS011;8646;49.716;9.266;2022-10-10T03:49:55;9.43;;;3.40;;
17059;SDS011;8646;49.716;9.266;2022-10-10T03:52:57;5.77;;;3.73;;
17059;SDS011;8646;49.716;9.266;2022-10-10T03:56:00;8.93;;;3.20;;
17059;SDS011;8646;49.716;9.266;2022-10-10T03:59:03;8.63;;;3.50;;
17059;SDS011;8646;49.716;9.266;2022-10-10T04:02:06;8.93;;;3.40;;
17059;SDS011;8646;49.716;9.266;2022-10-10T04:05:11;7.23;;;3.43;;
17059;SDS011;8646;49.716;9.266;2022-10-10T04:08:14;8.20;;;3.13;;
17059;SDS011;8646;49.716;9.266;2022-10-10T04:11:17;10.87;;;3.40;;
17059;SDS011;8646;49.716;9.266;2022-10-10T04:14:20;6.23;;;3.33;;
17059;SDS011;8646;49.716;9.266;2022-10-10T04:17:23;7.50;;;3.50;;
17059;SDS011;8646;49.716;9.266;2022-10-10T04:20:27;9.67;;;4.37;;
17059;SDS011;8646;49.716;9.266;2022-10-10T04:23:30;10.90;;;4.00;;
17059;SDS011;8646;49.716;9.266;2022-10-10T04:26:33;11.97;;;3.70;;
17059;SDS011;8646;49.716;9.266;2022-10-10T04:29:36;6.23;;;3.70;;
17059;SDS011;8646;49.716;9.266;2022-10-10T04:32:39;11.97;;;6.53;;
17059;SDS011;8646;49.716;9.266;2022-10-10T04:35:44;20.57;;;6.90;;
17059;SDS011;8646;49.716;9.266;2022-10-10T04:38:48;21.83;;;5.63;;
17059;SDS011;8646;49.716;9.266;2022-10-10T04:41:51;14.17;;;5.60;;
17059;SDS011;8646;49.716;9.266;2022-10-10T04:44:54;12.20;;;4.47;;
17059;SDS011;8646;49.716;9.266;2022-10-10T04:47:56;9.70;;;4.10;;
17059;SDS011;8646;49.716;9.266;2022-10-10T04:51:01;6.57;;;3.80;;
17059;SDS011;8646;49.716;9.266;2022-10-10T04:54:04;10.10;;;5.27;;
17059;SDS011;8646;49.716;9.266;2022-10-10T04:57:06;12.07;;;4.73;;
17059;SDS011;8646;49.716;9.266;2022-10-10T05:00:10;11.47;;;5.10;;
17059;SDS011;8646;49.716;9.266;2022-10-10T05:03:13;14.73;;;4.77;;
17059;SDS011;8646;49.716;9.266;2022-10-10T05:06:17;12.00;;;5.20;;
17059;SDS011;8646;49.716;9.266;2022-10-10T05:09:21;12.90;;;5.10;;
17059;SDS011;8646;49.716;9.266;2022-10-10T05:12:24;16.67;;;5.77;;
17059;SDS011;8646;49.716;9.266;2022-10-10T05:15:27;16.10;;;4.80;;
17059;SDS011;8646;49.716;9.266;2022-10-10T05:18:30;12.93;;;6.30;;
17059;SDS011;8646;49.716;9.266;2022-10-10T05:21:35;12.07;;;5.87;;
17059;SDS011;8646;49.716;9.266;2022-10-10T05:24:37;11.87;;;5.30;;
17059;SDS011;8646;49.716;9.266;2022-10-10T05:27:40;8.23;;;3.90;;
17059;SDS011;8646;49.716;9.266;2022-10-10T05:30:43;10.43;;;4.53;;
17059;SDS011;8646;49.716;9.266;2022-10-10T05:33:46;15.47;;;6.77;;
17059;SDS011;8646;49.716;9.266;2022-10-10T05:36:51;9.47;;;4.57;;
17059;SDS011;8646;49.716;9.266;2022-10-10T05:39:53;9.80;;;4.53;;
17059;SDS011;8646;49.716;9.266;2022-10-10T05:42:56;92.13;;;23.20;;
17059;SDS011;8646;49.716;9.266;2022-10-10T05:45:59;11.13;;;5.17;;
17059;SDS011;8646;49.716;9.266;2022-10-10T05:49:02;35.87;;;11.13;;
17059;SDS011;8646;49.716;9.266;2022-10-10T05:52:07;20.57;;;7.40;;
17059;SDS011;8646;49.716;9.266;2022-10-10T05:55:10;21.80;;;8.07;;
17059;SDS011;8646;49.716;9.266;2022-10-10T05:58:13;12.53;;;5.70;;
17059;SDS011;8646;49.716;9.266;2022-10-10T06:01:16;14.43;;;5.50;;
17059;SDS011;8646;49.716;9.266;2022-10-10T06:04:20;10.17;;;4.37;;
17059;SDS011;8646;49.716;9.266;2022-10-10T06:07:24;12.13;;;4.43;;
17059;SDS011;8646;49.716;9.266;2022-10-10T06:10:47;14.27;;;5.07;;
17059;SDS011;8646;49.716;9.266;2022-10-10T06:13:50;27.40;;;9.13;;
17059;SDS011;8646;49.716;9.266;2022-10-10T06:16:54;9.70;;;4.40;;
17059;SDS011;8646;49.716;9.266;2022-10-10T06:19:57;9.53;;;3.97;;
17059;SDS011;8646;49.716;9.266;2022-10-10T06:23:01;23.73;;;8.50;;
17059;SDS011;8646;49.716;9.266;2022-10-10T06:26:05;11.37;;;6.40;;
17059;SDS011;8646;49.716;9.266;2022-10-10T06:29:08;18.33;;;6.40;;
17059;SDS011;8646;49.716;9.266;2022-10-10T06:32:11;19.00;;;7.60;;
17059;SDS011;8646;49.716;9.266;2022-10-10T06:35:14;31.13;;;8.93;;
17059;SDS011;8646;49.716;9.266;2022-10-10T06:38:19;25.17;;;9.53;;
17059;SDS011;8646;49.716;9.266;2022-10-10T06:41:22;33.47;;;12.80;;
17059;SDS011;8646;49.716;9.266;2022-10-10T06:44:25;22.30;;;9.57;;
17059;SDS011;8646;49.716;9.266;2022-10-10T06:47:28;20.70;;;8.00;;
17059;SDS011;8646;49.716;9.266;2022-10-10T06:50:31;10.73;;;5.03;;
17059;SDS011;8646;49.716;9.266;2022-10-10T06:53:35;15.10;;;5.67;;
17059;SDS011;8646;49.716;9.266;2022-10-10T06:56:38;15.97;;;5.70;;
17059;SDS011;8646;49.716;9.266;2022-10-10T06:59:41;13.60;;;4.83;;
17059;SDS011;8646;49.716;9.266;2022-10-10T07:02:44;10.87;;;4.50;;
17059;SDS011;8646;49.716;9.266;2022-10-10T07:05:48;12.13;;;6.43;;
17059;SDS011;8646;49.716;9.266;2022-10-10T07:08:53;15.77;;;6.13;;
17059;SDS011;8646;49.716;9.266;2022-10-10T07:11:56;19.43;;;3.57;;
17059;SDS011;8646;49.716;9.266;2022-10-10T07:14:59;5.40;;;3.20;;
17059;SDS011;8646;49.716;9.266;2022-10-10T07:18:02;9.03;;;3.00;;
17059;SDS011;8646;49.716;9.266;2022-10-10T07:21:05;8.43;;;4.20;;
17059;SDS011;8646;49.716;9.266;2022-10-10T07:24:09;10.97;;;3.83;;
17059;SDS011;8646;49.716;9.266;2022-10-10T07:27:12;10.57;;;3.83;;
17059;SDS011;8646;49.716;9.266;2022-10-10T07:30:15;9.17;;;3.47;;
17059;SDS011;8646;49.716;9.266;2022-10-10T07:33:17;4.80;;;2.83;;
17059;SDS011;8646;49.716;9.266;2022-10-10T07:36:20;4.97;;;2.97;;
17059;SDS011;8646;49.716;9.266;2022-10-10T07:39:24;10.60;;;3.60;;
17059;SDS011;8646;49.716;9.266;2022-10-10T07:42:28;7.00;;;3.03;;
17059;SDS011;8646;49.716;9.266;2022-10-10T07:45:30;6.27;;;3.13;;
17059;SDS011;8646;49.716;9.266;2022-10-10T07:48:37;4.63;;;2.60;;
17059;SDS011;8646;49.716;9.266;2022-10-10T07:51:40;7.87;;;3.20;;
17059;SDS011;8646;49.716;9.266;2022-10-10T07:54:44;7.80;;;2.77;;
17059;SDS011;8646;49.716;9.266;2022-10-10T07:57:47;6.37;;;2.73;;
17059;SDS011;8646;49.716;9.266;2022-10-10T08:01:00;7.00;;;3.03;;
17059;SDS011;8646;49.716;9.266;2022-10-10T08:04:03;8.27;;;2.80;;
17059;SDS011;8646;49.716;9.266;2022-10-10T08:07:07;6.53;;;2.23;;
17059;SDS011;8646;49.716;9.266;2022-10-10T08:10:11;7.63;;;2.50;;
17059;SDS011;8646;49.716;9.266;2022-10-10T08:13:14;9.03;;;2.80;;
17059;SDS011;8646;49.716;9.266;2022-10-10T08:16:18;5.63;;;2.27;;
17059;SDS011;8646;49.716;9.266;2022-10-10T08:19:21;7.23;;;3.33;;
17059;SDS011;8646;49.716;9.266;2022-10-10T08:22:24;8.27;;;3.03;;
17059;SDS011;8646;49.716;9.266;2022-10-10T08:25:28;6.47;;;2.80;;
17059;SDS011;8646;49.716;9.266;2022-10-10T08:28:31;3.50;;;1.77;;
17059;SDS011;8646;49.716;9.266;2022-10-10T08:31:34;6.40;;;2.80;;
17059;SDS011;8646;49.716;9.266;2022-10-10T08:34:37;5.23;;;2.60;;
17059;SDS011;8646;49.716;9.266;2022-10-10T08:37:40;6.27;;;2.53;;
17059;SDS011;8646;49.716;9.266;2022-10-10T08:40:45;4.17;;;2.37;;
17059;SDS011;8646;49.716;9.266;2022-10-10T08:43:51;5.93;;;2.43;;
17059;SDS011;8646;49.716;9.266;2022-10-10T08:46:58;4.60;;;2.43;;
17059;SDS011;8646;49.716;9.266;2022-10-10T08:50:04;6.50;;;3.17;;
17059;SDS011;8646;49.716;9.266;2022-10-10T08:53:14;8.50;;;3.20;;
17059;SDS011;8646;49.716;9.266;2022-10-10T08:56:25;15.30;;;3.27;;
17059;SDS011;8646;49.716;9.266;2022-10-10T08:59:33;11.03;;;2.83;;
17059;SDS011;8646;49.716;9.266;2022-10-10T09:02:38;7.00;;;3.10;;
17059;SDS011;8646;49.716;9.266;2022-10-10T09:06:02;6.03;;;3.10;;
17059;SDS011;8646;49.716;9.266;2022-10-10T09:09:18;6.37;;;3.57;;
17059;SDS011;8646;49.716;9.266;2022-10-10T09:12:30;9.50;;;2.87;;
17059;SDS011;8646;49.716;9.266;2022-10-10T09:15:39;4.97;;;2.70;;
17059;SDS011;8646;49.716;9.266;2022-10-10T09:18:50;4.53;;;2.10;;
17059;SDS011;8646;49.716;9.266;2022-10-10T09:22:02;6.20;;;3.13;;
17059;SDS011;8646;49.716;9.266;2022-10-10T09:25:14;5.83;;;2.20;;
17059;SDS011;8646;49.716;9.266;2022-10-10T09:28:25;6.10;;;3.00;;
17059;SDS011;8646;49.716;9.266;2022-10-10T09:31:38;5.40;;;2.77;;
17059;SDS011;8646;49.716;9.266;2022-10-10T09:34:44;9.17;;;2.70;;
17059;SDS011;8646;49.716;9.266;2022-10-10T09:37:49;6.37;;;2.70;;
17059;SDS011;8646;49.716;9.266;2022-10-10T09:40:58;10.30;;;2.80;;
17059;SDS011;8646;49.716;9.266;2022-10-10T09:44:05;5.10;;;2.90;;
17059;SDS011;8646;49.716;9.266;2022-10-10T09:47:13;9.80;;;3.00;;
17059;SDS011;8646;49.716;9.266;2022-10-10T09:50:18;10.43;;;2.77;;
17059;SDS011;8646;49.716;9.266;2022-10-10T09:53:20;5.73;;;2.37;;
17059;SDS011;8646;49.716;9.266;2022-10-10T09:56:25;5.27;;;2.30;;
17059;SDS011;8646;49.716;9.266;2022-10-10T09:59:37;4.63;;;1.73;;
17059;SDS011;8646;49.716;9.266;2022-10-10T10:02:41;5.43;;;2.07;;
17059;SDS011;8646;49.716;9.266;2022-10-10T10:05:45;7.70;;;2.60;;
17059;SDS011;8646;49.716;9.266;2022-10-10T10:08:54;25.13;;;3.43;;
17059;SDS011;8646;49.716;9.266;2022-10-10T10:12:02;7.97;;;2.37;;
17059;SDS011;8646;49.716;9.266;2022-10-10T10:15:15;8.60;;;2.50;;
17059;SDS011;8646;49.716;9.266;2022-10-10T10:18:20;3.63;;;1.77;;
17059;SDS011;8646;49.716;9.266;2022-10-10T10:21:26;4.37;;;2.10;;
17059;SDS011;8646;49.716;9.266;2022-10-10T10:24:30;3.83;;;1.70;;
17059;SDS011;8646;49.716;9.266;2022-10-10T10:27:36;4.87;;;1.43;;
17059;SDS011;8646;49.716;9.266;2022-10-10T10:30:41;8.20;;;2.63;;
17059;SDS011;8646;49.716;9.266;2022-10-10T10:33:46;10.13;;;2.90;;
17059;SDS011;8646;49.716;9.266;2022-10-10T10:36:59;6.47;;;2.90;;
17059;SDS011;8646;49.716;9.266;2022-10-10T10:40:17;6.27;;;2.90;;
17059;SDS011;8646;49.716;9.266;2022-10-10T10:43:34;9.20;;;2.63;;
17059;SDS011;8646;49.716;9.266;2022-10-10T10:46:52;7.03;;;2.87;;
17059;SDS011;8646;49.716;9.266;2022-10-10T10:50:10;5.53;;;2.47;;
17059;SDS011;8646;49.716;9.266;2022-10-10T10:53:26;10.80;;;3.00;;
17059;SDS011;8646;49.716;9.266;2022-10-10T10:56:40;7.00;;;2.93;;
17059;SDS011;8646;49.716;9.266;2022-10-10T10:59:52;6.10;;;2.80;;
17059;SDS011;8646;49.716;9.266;2022-10-10T11:03:29;6.20;;;2.70;;
17059;SDS011;8646;49.716;9.266;2022-10-10T11:07:05;17.80;;;3.40;;
17059;SDS011;8646;49.716;9.266;2022-10-10T11:10:22;11.50;;;2.80;;
17059;SDS011;8646;49.716;9.266;2022-10-10T11:13:37;13.03;;;3.13;;
17059;SDS011;8646;49.716;9.266;2022-10-10T11:16:47;6.63;;;3.00;;
17059;SDS011;8646;49.716;9.266;2022-10-10T11:19:57;10.50;;;3.10;;
17059;SDS011;8646;49.716;9.266;2022-10-10T11:23:04;10.23;;;3.20;;
17059;SDS011;8646;49.716;9.266;2022-10-10T11:26:15;6.37;;;2.83;;
17059;SDS011;8646;49.716;9.266;2022-10-10T11:29:22;16.60;;;3.53;;
17059;SDS011;8646;49.716;9.266;2022-10-10T11:32:29;9.33;;;3.20;;
17059;SDS011;8646;49.716;9.266;2022-10-10T11:35:39;8.23;;;2.83;;
17059;SDS011;8646;49.716;9.266;2022-10-10T11:38:46;13.90;;;3.43;;
17059;SDS011;8646;49.716;9.266;2022-10-10T11:41:53;11.60;;;3.27;;
17059;SDS011;8646;49.716;9.266;2022-10-10T11:45:01;23.00;;;9.07;;
17059;SDS011;8646;49.716;9.266;2022-10-10T11:48:11;9.37;;;3.00;;
17059;SDS011;8646;49.716;9.266;2022-10-10T11:51:28;8.20;;;3.17;;
17059;SDS011;8646;49.716;9.266;2022-10-10T11:54:40;11.53;;;2.40;;
17059;SDS011;8646;49.716;9.266;2022-10-10T11:57:49;11.33;;;2.77;;
17059;SDS011;8646;49.716;9.266;2022-10-10T12:00:57;8.13;;;2.40;;
17059;SDS011;8646;49.716;9.266;2022-10-10T12:04:04;12.13;;;2.20;;
17059;SDS011;8646;49.716;9.266;2022-10-10T12:07:10;14.33;;;2.60;;
17059;SDS011;8646;49.716;9.266;2022-10-10T12:10:20;14.53;;;2.23;;
17059;SDS011;8646;49.716;9.266;2022-10-10T12:13:27;14.63;;;2.00;;
17059;SDS011;8646;49.716;9.266;2022-10-10T12:16:35;15.70;;;2.33;;
17059;SDS011;8646;49.716;9.266;2022-10-10T12:19:40;9.47;;;2.27;;
17059;SDS011;8646;49.716;9.266;2022-10-10T12:23:08;9.77;;;2.50;;
17059;SDS011;8646;49.716;9.266;2022-10-10T12:26:21;6.50;;;2.10;;
17059;SDS011;8646;49.716;9.266;2022-10-10T12:29:38;9.83;;;2.40;;
17059;SDS011;8646;49.716;9.266;2022-10-10T12:32:43;6.90;;;2.03;;
17059;SDS011;8646;49.716;9.266;2022-10-10T12:35:46;10.70;;;2.17;;
17059;SDS011;8646;49.716;9.266;2022-10-10T12:42:28;13.97;;;2.67;;
17059;SDS011;8646;49.716;9.266;2022-10-10T12:49:15;9.20;;;2.10;;
17059;SDS011;8646;49.716;9.266;2022-10-10T12:52:20;18.23;;;2.33;;
17059;SDS011;8646;49.716;9.266;2022-10-10T12:55:28;16.50;;;2.03;;
17059;SDS011;8646;49.716;9.266;2022-10-10T12:58:36;12.30;;;2.20;;
17059;SDS011;8646;49.716;9.266;2022-10-10T13:01:42;10.07;;;1.90;;
17059;SDS011;8646;49.716;9.266;2022-10-10T13:04:47;14.27;;;1.90;;
17059;SDS011;8646;49.716;9.266;2022-10-10T13:07:54;16.50;;;1.97;;
17059;SDS011;8646;49.716;9.266;2022-10-10T13:11:02;10.03;;;1.90;;
17059;SDS011;8646;49.716;9.266;2022-10-10T13:14:12;12.97;;;2.10;;
17059;SDS011;8646;49.716;9.266;2022-10-10T13:17:19;12.60;;;2.13;;
17059;SDS011;8646;49.716;9.266;2022-10-10T13:20:26;9.17;;;1.63;;
17059;SDS011;8646;49.716;9.266;2022-10-10T13:23:35;10.40;;;1.80;;
17059;SDS011;8646;49.716;9.266;2022-10-10T13:26:43;9.33;;;1.70;;
17059;SDS011;8646;49.716;9.266;2022-10-10T13:29:51;15.43;;;2.13;;
17059;SDS011;8646;49.716;9.266;2022-10-10T13:32:55;10.07;;;1.80;;
17059;SDS011;8646;49.716;9.266;2022-10-10T13:36:03;11.13;;;2.10;;
17059;SDS011;8646;49.716;9.266;2022-10-10T13:39:09;14.43;;;2.07;;
17059;SDS011;8646;49.716;9.266;2022-10-10T13:42:26;11.13;;;2.17;;
17059;SDS011;8646;49.716;9.266;2022-10-10T13:45:36;18.43;;;1.90;;
17059;SDS011;8646;49.716;9.266;2022-10-10T13:48:45;18.43;;;2.37;;
17059;SDS011;8646;49.716;9.266;2022-10-10T13:51:58;15.20;;;2.23;;
17059;SDS011;8646;49.716;9.266;2022-10-10T13:55:13;12.33;;;2.00;;
17059;SDS011;8646;49.716;9.266;2022-10-10T13:58:17;16.00;;;2.60;;
17059;SDS011;8646;49.716;9.266;2022-10-10T14:01:30;8.20;;;2.10;;
17059;SDS011;8646;49.716;9.266;2022-10-10T14:04:36;10.80;;;2.27;;
17059;SDS011;8646;49.716;9.266;2022-10-10T14:07:45;14.37;;;1.97;;
17059;SDS011;8646;49.716;9.266;2022-10-10T14:10:54;7.53;;;2.17;;
17059;SDS011;8646;49.716;9.266;2022-10-10T14:14:00;17.57;;;2.50;;
17059;SDS011;8646;49.716;9.266;2022-10-10T14:17:08;13.67;;;2.00;;
17059;SDS011;8646;49.716;9.266;2022-10-10T14:20:13;14.43;;;1.80;;
17059;SDS011;8646;49.716;9.266;2022-10-10T14:23:16;17.97;;;2.60;;
17059;SDS011;8646;49.716;9.266;2022-10-10T14:26:19;13.53;;;2.37;;
17059;SDS011;8646;49.716;9.266;2022-10-10T14:29:23;6.97;;;1.97;;
17059;SDS011;8646;49.716;9.266;2022-10-10T14:32:27;9.93;;;2.07;;
17059;SDS011;8646;49.716;9.266;2022-10-10T14:35:30;7.83;;;2.03;;
17059;SDS011;8646;49.716;9.266;2022-10-10T14:38:34;13.47;;;2.53;;
17059;SDS011;8646;49.716;9.266;2022-10-10T14:41:37;14.40;;;2.47;;
17059;SDS011;8646;49.716;9.266;2022-10-10T14:44:40;11.47;;;2.67;;
17059;SDS011;8646;49.716;9.266;2022-10-10T14:47:45;14.47;;;2.13;;
17059;SDS011;8646;49.716;9.266;2022-10-10T14:50:50;13.00;;;2.30;;
17059;SDS011;8646;49.716;9.266;2022-10-10T14:53:53;17.37;;;2.57;;
17059;SDS011;8646;49.716;9.266;2022-10-10T14:57:14;13.53;;;2.63;;
17059;SDS011;8646;49.716;9.266;2022-10-10T15:00:18;17.47;;;3.17;;
17059;SDS011;8646;49.716;9.266;2022-10-10T15:03:24;11.83;;;2.27;;
17059;SDS011;8646;49.716;9.266;2022-10-10T15:06:27;12.13;;;2.40;;
17059;SDS011;8646;49.716;9.266;2022-10-10T15:09:30;9.90;;;2.37;;
17059;SDS011;8646;49.716;9.266;2022-10-10T15:12:43;12.10;;;2.90;;
17059;SDS011;8646;49.716;9.266;2022-10-10T15:15:46;20.10;;;2.57;;
17059;SDS011;8646;49.716;9.266;2022-10-10T15:18:50;15.50;;;2.27;;
17059;SDS011;8646;49.716;9.266;2022-10-10T15:21:55;10.20;;;2.73;;
17059;SDS011;8646;49.716;9.266;2022-10-10T15:24:57;9.90;;;2.30;;
17059;SDS011;8646;49.716;9.266;2022-10-10T15:28:01;16.00;;;2.57;;
17059;SDS011;8646;49.716;9.266;2022-10-10T15:31:04;14.73;;;2.23;;
17059;SDS011;8646;49.716;9.266;2022-10-10T15:34:08;12.97;;;3.67;;
17059;SDS011;8646;49.716;9.266;2022-10-10T15:37:11;12.40;;;3.17;;
17059;SDS011;8646;49.716;9.266;2022-10-10T15:40:14;10.70;;;3.40;;
17059;SDS011;8646;49.716;9.266;2022-10-10T15:43:19;18.03;;;3.60;;
17059;SDS011;8646;49.716;9.266;2022-10-10T15:46:23;15.50;;;3.57;;
17059;SDS011;8646;49.716;9.266;2022-10-10T15:49:31;12.10;;;3.13;;
17059;SDS011;8646;49.716;9.266;2022-10-10T15:52:34;17.60;;;3.10;;
17059;SDS011;8646;49.716;9.266;2022-10-10T15:55:39;11.67;;;2.77;;
17059;SDS011;8646;49.716;9.266;2022-10-10T15:58:43;14.00;;;3.43;;
17059;SDS011;8646;49.716;9.266;2022-10-10T16:01:46;15.10;;;2.90;;
17059;SDS011;8646;49.716;9.266;2022-10-10T16:04:50;12.20;;;2.70;;
17059;SDS011;8646;49.716;9.266;2022-10-10T16:07:53;13.83;;;3.23;;
17059;SDS011;8646;49.716;9.266;2022-10-10T16:10:56;15.67;;;2.77;;
17059;SDS011;8646;49.716;9.266;2022-10-10T16:13:59;14.70;;;2.60;;
17059;SDS011;8646;49.716;9.266;2022-10-10T16:17:02;14.87;;;2.80;;
17059;SDS011;8646;49.716;9.266;2022-10-10T16:20:07;12.60;;;2.63;;
17059;SDS011;8646;49.716;9.266;2022-10-10T16:23:11;20.00;;;9.00;;
17059;SDS011;8646;49.716;9.266;2022-10-10T16:26:15;36.30;;;15.73;;
17059;SDS011;8646;49.716;9.266;2022-10-10T16:29:19;39.93;;;15.23;;
17059;SDS011;8646;49.716;9.266;2022-10-10T16:32:22;18.83;;;5.60;;
17059;SDS011;8646;49.716;9.266;2022-10-10T16:35:26;17.20;;;5.70;;
17059;SDS011;8646;49.716;9.266;2022-10-10T16:38:29;23.30;;;9.53;;
17059;SDS011;8646;49.716;9.266;2022-10-10T16:41:32;10.67;;;3.60;;
17059;SDS011;8646;49.716;9.266;2022-10-10T16:44:48;12.73;;;3.23;;
17059;SDS011;8646;49.716;9.266;2022-10-10T16:47:51;8.27;;;2.70;;
17059;SDS011;8646;49.716;9.266;2022-10-10T16:50:55;11.40;;;3.93;;
17059;SDS011;8646;49.716;9.266;2022-10-10T16:54:04;11.70;;;4.60;;
17059;SDS011;8646;49.716;9.266;2022-10-10T16:57:07;12.47;;;4.00;;
17059;SDS011;8646;49.716;9.266;2022-10-10T17:00:12;15.70;;;5.10;;
17059;SDS011;8646;49.716;9.266;2022-10-10T17:03:15;18.70;;;4.73;;
17059;SDS011;8646;49.716;9.266;2022-10-10T17:06:20;20.70;;;6.40;;
17059;SDS011;8646;49.716;9.266;2022-10-10T17:09:24;24.80;;;5.20;;
17059;SDS011;8646;49.716;9.266;2022-10-10T17:12:27;23.87;;;6.27;;
17059;SDS011;8646;49.716;9.266;2022-10-10T17:15:30;22.87;;;6.90;;
17059;SDS011;8646;49.716;9.266;2022-10-10T17:18:33;23.03;;;7.20;;
17059;SDS011;8646;49.716;9.266;2022-10-10T17:21:38;14.90;;;4.07;;
17059;SDS011;8646;49.716;9.266;2022-10-10T17:24:41;25.70;;;9.40;;
17059;SDS011;8646;49.716;9.266;2022-10-10T17:27:44;21.10;;;8.90;;
17059;SDS011;8646;49.716;9.266;2022-10-10T17:30:48;14.93;;;5.90;;
17059;SDS011;8646;49.716;9.266;2022-10-10T17:33:51;14.27;;;5.37;;
17059;SDS011;8646;49.716;9.266;2022-10-10T17:36:56;10.67;;;3.33;;
17059;SDS011;8646;49.716;9.266;2022-10-10T17:39:59;14.00;;;3.60;;
17059;SDS011;8646;49.716;9.266;2022-10-10T17:43:02;15.27;;;3.80;;
17059;SDS011;8646;49.716;9.266;2022-10-10T17:46:06;15.90;;;5.03;;
17059;SDS011;8646;49.716;9.266;2022-10-10T17:49:31;21.37;;;5.70;;
17059;SDS011;8646;49.716;9.266;2022-10-10T17:52:36;13.67;;;3.73;;
17059;SDS011;8646;49.716;9.266;2022-10-10T17:55:39;12.00;;;3.90;;
17059;SDS011;8646;49.716;9.266;2022-10-10T17:58:42;12.30;;;4.43;;
17059;SDS011;8646;49.716;9.266;2022-10-10T18:01:46;11.20;;;4.00;;
17059;SDS011;8646;49.716;9.266;2022-10-10T18:04:48;18.10;;;4.20;;
17059;SDS011;8646;49.716;9.266;2022-10-10T18:07:52;12.30;;;3.90;;
17059;SDS011;8646;49.716;9.266;2022-10-10T18:10:56;16.03;;;5.63;;
17059;SDS011;8646;49.716;9.266;2022-10-10T18:14:00;41.93;;;21.83;;
17059;SDS011;8646;49.716;9.266;2022-10-10T18:17:03;31.83;;;14.07;;
17059;SDS011;8646;49.716;9.266;2022-10-10T18:20:06;15.73;;;6.60;;
17059;SDS011;8646;49.716;9.266;2022-10-10T18:23:12;13.07;;;4.97;;
17059;SDS011;8646;49.716;9.266;2022-10-10T18:26:15;17.73;;;5.70;;
17059;SDS011;8646;49.716;9.266;2022-10-10T18:29:20;20.30;;;8.17;;
17059;SDS011;8646;49.716;9.266;2022-10-10T18:32:23;22.03;;;7.90;;
17059;SDS011;8646;49.716;9.266;2022-10-10T18:35:26;22.17;;;8.67;;
17059;SDS011;8646;49.716;9.266;2022-10-10T18:38:30;21.03;;;8.27;;
17059;SDS011;8646;49.716;9.266;2022-10-10T18:41:33;14.13;;;6.50;;
17059;SDS011;8646;49.716;9.266;2022-10-10T18:44:36;12.33;;;4.83;;
17059;SDS011;8646;49.716;9.266;2022-10-10T18:47:39;14.23;;;4.87;;
17059;SDS011;8646;49.716;9.266;2022-10-10T18:50:42;16.53;;;5.20;;
17059;SDS011;8646;49.716;9.266;2022-10-10T18:53:46;13.87;;;5.03;;
17059;SDS011;8646;49.716;9.266;2022-10-10T18:56:49;19.33;;;5.47;;
17059;SDS011;8646;49.716;9.266;2022-10-10T18:59:52;17.27;;;6.17;;
17059;SDS011;8646;49.716;9.266;2022-10-10T19:02:55;17.47;;;6.00;;